sensor_id;sensor_type;location;lat;lon;timestamp;temperature;humidity
45849;DHT22;31567;54.600;9.842;2023-03-13T00:03:17;8.40;99.90
45849;DHT22;31567;54.600;9.842;2023-03-13T00:06:56;8.40;99.90
45849;DHT22;31567;54.600;9.842;2023-03-13T00:10:37;8.40;99.90
45849;DHT22;31567;54.600;9.842;2023-03-13T00:14:17;8.40;99.90
45849;DHT22;31567;54.600;9.842;2023-03-13T00:17:56;8.40;99.90
45849;DHT22;31567;54.600;9.842;2023-03-13T00:21:36;8.40;99.90
45849;DHT22;31567;54.600;9.842;2023-03-13T00:25:19;8.40;99.90
45849;DHT22;31567;54.600;9.842;2023-03-13T00:28:59;8.40;99.90
45849;DHT22;31567;54.600;9.842;2023-03-13T00:32:42;8.40;99.90
45849;DHT22;31567;54.600;9.842;2023-03-13T00:36:27;8.40;99.90
45849;DHT22;31567;54.600;9.842;2023-03-13T00:40:08;8.50;99.90
45849;DHT22;31567;54.600;9.842;2023-03-13T00:43:49;8.50;99.90
45849;DHT22;31567;54.600;9.842;2023-03-13T00:47:28;8.50;99.90
45849;DHT22;31567;54.600;9.842;2023-03-13T00:51:09;8.50;99.90
45849;DHT22;31567;54.600;9.842;2023-03-13T00:54:49;8.50;99.90
45849;DHT22;31567;54.600;9.842;2023-03-13T00:58:30;8.40;99.90
45849;DHT22;31567;54.600;9.842;2023-03-13T01:02:10;8.40;99.90
45849;DHT22;31567;54.600;9.842;2023-03-13T01:06:00;8.50;99.90
45849;DHT22;31567;54.600;9.842;2023-03-13T01:09:40;8.50;99.90
45849;DHT22;31567;54.600;9.842;2023-03-13T01:13:19;8.50;99.90
45849;DHT22;31567;54.600;9.842;2023-03-13T01:16:59;8.40;99.90
45849;DHT22;31567;54.600;9.842;2023-03-13T01:20:38;8.50;99.90
45849;DHT22;31567;54.600;9.842;2023-03-13T01:24:19;8.50;99.90
45849;DHT22;31567;54.600;9.842;2023-03-13T01:27:58;8.50;99.90
45849;DHT22;31567;54.600;9.842;2023-03-13T01:31:38;8.50;99.90
45849;DHT22;31567;54.600;9.842;2023-03-13T01:35:17;8.50;99.90
45849;DHT22;31567;54.600;9.842;2023-03-13T01:38:59;8.50;99.90
45849;DHT22;31567;54.600;9.842;2023-03-13T01:42:56;8.50;99.90
45849;DHT22;31567;54.600;9.842;2023-03-13T01:46:36;8.50;99.90
45849;DHT22;31567;54.600;9.842;2023-03-13T01:50:15;8.50;99.90
45849;DHT22;31567;54.600;9.842;2023-03-13T01:54:00;8.50;99.90
45849;DHT22;31567;54.600;9.842;2023-03-13T01:57:46;8.50;99.90
45849;DHT22;31567;54.600;9.842;2023-03-13T02:01:29;8.50;99.90
45849;DHT22;31567;54.600;9.842;2023-03-13T02:05:09;8.50;99.90
45849;DHT22;31567;54.600;9.842;2023-03-13T02:08:53;8.50;99.90
45849;DHT22;31567;54.600;9.842;2023-03-13T02:12:36;8.50;99.90
45849;DHT22;31567;54.600;9.842;2023-03-13T02:16:16;8.50;99.90
45849;DHT22;31567;54.600;9.842;2023-03-13T02:19:56;8.50;99.90
45849;DHT22;31567;54.600;9.842;2023-03-13T02:23:49;8.50;99.90
45849;DHT22;31567;54.600;9.842;2023-03-13T02:27:30;8.50;99.90
45849;DHT22;31567;54.600;9.842;2023-03-13T02:31:09;8.60;99.90
45849;DHT22;31567;54.600;9.842;2023-03-13T02:34:53;8.60;99.90
45849;DHT22;31567;54.600;9.842;2023-03-13T02:38:41;8.50;99.90
45849;DHT22;31567;54.600;9.842;2023-03-13T02:42:23;8.60;99.90
45849;DHT22;31567;54.600;9.842;2023-03-13T02:46:13;8.60;99.90
45849;DHT22;31567;54.600;9.842;2023-03-13T02:49:52;8.60;99.90
45849;DHT22;31567;54.600;9.842;2023-03-13T02:53:32;8.60;99.90
45849;DHT22;31567;54.600;9.842;2023-03-13T02:57:13;8.60;99.90
45849;DHT22;31567;54.600;9.842;2023-03-13T03:00:52;8.60;99.90
45849;DHT22;31567;54.600;9.842;2023-03-13T03:04:32;8.70;99.90
45849;DHT22;31567;54.600;9.842;2023-03-13T03:08:11;8.60;99.90
45849;DHT22;31567;54.600;9.842;2023-03-13T03:11:51;8.70;99.90
45849;DHT22;31567;54.600;9.842;2023-03-13T03:15:31;8.70;99.90
45849;DHT22;31567;54.600;9.842;2023-03-13T03:19:10;8.80;99.90
45849;DHT22;31567;54.600;9.842;2023-03-13T03:22:50;8.80;99.90
45849;DHT22;31567;54.600;9.842;2023-03-13T03:26:29;8.80;99.90
45849;DHT22;31567;54.600;9.842;2023-03-13T03:30:10;8.80;99.90
45849;DHT22;31567;54.600;9.842;2023-03-13T03:33:50;8.80;99.90
45849;DHT22;31567;54.600;9.842;2023-03-13T03:37:29;8.80;99.90
45849;DHT22;31567;54.600;9.842;2023-03-13T03:41:10;8.70;99.90
45849;DHT22;31567;54.600;9.842;2023-03-13T03:44:50;8.80;99.90
45849;DHT22;31567;54.600;9.842;2023-03-13T03:48:29;8.90;99.90
45849;DHT22;31567;54.600;9.842;2023-03-13T03:52:09;8.80;99.90
45849;DHT22;31567;54.600;9.842;2023-03-13T03:55:48;8.80;99.90
45849;DHT22;31567;54.600;9.842;2023-03-13T03:59:28;8.90;99.90
45849;DHT22;31567;54.600;9.842;2023-03-13T04:03:07;8.90;99.90
45849;DHT22;31567;54.600;9.842;2023-03-13T04:06:47;8.90;99.90
45849;DHT22;31567;54.600;9.842;2023-03-13T04:10:26;9.00;99.90
45849;DHT22;31567;54.600;9.842;2023-03-13T04:14:06;9.00;99.90
45849;DHT22;31567;54.600;9.842;2023-03-13T04:17:46;9.00;99.90
45849;DHT22;31567;54.600;9.842;2023-03-13T04:21:25;8.90;99.90
45849;DHT22;31567;54.600;9.842;2023-03-13T04:25:06;8.90;99.90
45849;DHT22;31567;54.600;9.842;2023-03-13T04:28:46;8.90;99.90
45849;DHT22;31567;54.600;9.842;2023-03-13T04:32:26;9.00;99.90
45849;DHT22;31567;54.600;9.842;2023-03-13T04:36:06;8.90;99.90
45849;DHT22;31567;54.600;9.842;2023-03-13T04:39:45;8.90;99.90
45849;DHT22;31567;54.600;9.842;2023-03-13T04:43:25;8.90;99.90
45849;DHT22;31567;54.600;9.842;2023-03-13T04:47:05;8.90;99.90
45849;DHT22;31567;54.600;9.842;2023-03-13T04:50:46;8.90;99.90
45849;DHT22;31567;54.600;9.842;2023-03-13T04:54:25;8.90;99.90
45849;DHT22;31567;54.600;9.842;2023-03-13T04:58:05;8.90;99.90
45849;DHT22;31567;54.600;9.842;2023-03-13T05:01:44;8.90;99.90
45849;DHT22;31567;54.600;9.842;2023-03-13T05:05:24;8.90;99.90
45849;DHT22;31567;54.600;9.842;2023-03-13T05:09:03;8.90;99.90
45849;DHT22;31567;54.600;9.842;2023-03-13T05:12:43;8.90;99.90
45849;DHT22;31567;54.600;9.842;2023-03-13T05:16:22;8.90;99.90
45849;DHT22;31567;54.600;9.842;2023-03-13T05:20:02;9.00;99.90
45849;DHT22;31567;54.600;9.842;2023-03-13T05:23:44;9.00;99.90
45849;DHT22;31567;54.600;9.842;2023-03-13T05:27:23;9.00;99.90
45849;DHT22;31567;54.600;9.842;2023-03-13T05:31:03;9.00;99.90
45849;DHT22;31567;54.600;9.842;2023-03-13T05:34:43;9.00;99.90
45849;DHT22;31567;54.600;9.842;2023-03-13T05:38:22;9.10;99.90
45849;DHT22;31567;54.600;9.842;2023-03-13T05:42:02;9.00;99.90
45849;DHT22;31567;54.600;9.842;2023-03-13T05:45:41;9.10;99.90
45849;DHT22;31567;54.600;9.842;2023-03-13T05:49:21;9.10;99.90
45849;DHT22;31567;54.600;9.842;2023-03-13T05:53:00;9.10;99.90
45849;DHT22;31567;54.600;9.842;2023-03-13T05:56:40;9.10;99.90
45849;DHT22;31567;54.600;9.842;2023-03-13T06:00:20;9.10;99.90
45849;DHT22;31567;54.600;9.842;2023-03-13T06:03:59;9.10;99.90
45849;DHT22;31567;54.600;9.842;2023-03-13T06:07:39;9.10;99.90
45849;DHT22;31567;54.600;9.842;2023-03-13T06:11:18;9.10;99.90
45849;DHT22;31567;54.600;9.842;2023-03-13T06:14:58;9.20;99.90
45849;DHT22;31567;54.600;9.842;2023-03-13T06:18:38;9.20;99.90
45849;DHT22;31567;54.600;9.842;2023-03-13T06:22:17;9.20;99.90
45849;DHT22;31567;54.600;9.842;2023-03-13T06:25:57;9.20;99.90
45849;DHT22;31567;54.600;9.842;2023-03-13T06:29:36;9.20;99.90
45849;DHT22;31567;54.600;9.842;2023-03-13T06:33:16;9.20;99.90
45849;DHT22;31567;54.600;9.842;2023-03-13T06:36:55;9.30;99.90
45849;DHT22;31567;54.600;9.842;2023-03-13T06:40:37;9.30;99.90
45849;DHT22;31567;54.600;9.842;2023-03-13T06:44:16;9.30;99.90
45849;DHT22;31567;54.600;9.842;2023-03-13T06:47:56;9.30;99.90
45849;DHT22;31567;54.600;9.842;2023-03-13T06:51:35;9.30;99.90
45849;DHT22;31567;54.600;9.842;2023-03-13T06:55:15;9.30;99.90
45849;DHT22;31567;54.600;9.842;2023-03-13T06:58:54;9.30;99.90
45849;DHT22;31567;54.600;9.842;2023-03-13T07:02:34;9.30;99.90
45849;DHT22;31567;54.600;9.842;2023-03-13T07:06:14;9.30;99.90
45849;DHT22;31567;54.600;9.842;2023-03-13T07:09:54;9.30;99.90
45849;DHT22;31567;54.600;9.842;2023-03-13T07:13:34;9.30;99.90
45849;DHT22;31567;54.600;9.842;2023-03-13T07:17:14;9.40;99.90
45849;DHT22;31567;54.600;9.842;2023-03-13T07:20:58;9.30;99.90
45849;DHT22;31567;54.600;9.842;2023-03-13T07:24:38;9.40;99.90
45849;DHT22;31567;54.600;9.842;2023-03-13T07:28:17;9.40;99.90
45849;DHT22;31567;54.600;9.842;2023-03-13T07:31:57;9.40;99.90
45849;DHT22;31567;54.600;9.842;2023-03-13T07:35:36;9.40;99.90
45849;DHT22;31567;54.600;9.842;2023-03-13T07:39:16;9.40;99.90
45849;DHT22;31567;54.600;9.842;2023-03-13T07:42:55;9.40;99.90
45849;DHT22;31567;54.600;9.842;2023-03-13T07:46:35;9.40;99.90
45849;DHT22;31567;54.600;9.842;2023-03-13T07:50:14;9.50;99.90
45849;DHT22;31567;54.600;9.842;2023-03-13T07:53:54;9.50;99.90
45849;DHT22;31567;54.600;9.842;2023-03-13T07:57:34;9.50;99.90
45849;DHT22;31567;54.600;9.842;2023-03-13T08:01:16;9.50;99.90
45849;DHT22;31567;54.600;9.842;2023-03-13T08:04:56;9.50;99.90
45849;DHT22;31567;54.600;9.842;2023-03-13T08:08:36;9.60;99.90
45849;DHT22;31567;54.600;9.842;2023-03-13T08:12:15;9.60;99.90
45849;DHT22;31567;54.600;9.842;2023-03-13T08:16:15;9.60;99.90
45849;DHT22;31567;54.600;9.842;2023-03-13T08:19:55;9.70;99.90
45849;DHT22;31567;54.600;9.842;2023-03-13T08:23:35;9.70;99.90
45849;DHT22;31567;54.600;9.842;2023-03-13T08:27:15;9.90;99.90
45849;DHT22;31567;54.600;9.842;2023-03-13T08:30:54;9.90;99.90
45849;DHT22;31567;54.600;9.842;2023-03-13T08:34:34;9.90;99.90
45849;DHT22;31567;54.600;9.842;2023-03-13T08:38:15;10.00;99.90
45849;DHT22;31567;54.600;9.842;2023-03-13T08:41:54;10.10;99.90
45849;DHT22;31567;54.600;9.842;2023-03-13T08:45:34;10.20;99.90
45849;DHT22;31567;54.600;9.842;2023-03-13T08:49:14;10.40;99.90
45849;DHT22;31567;54.600;9.842;2023-03-13T08:52:55;10.40;99.90
45849;DHT22;31567;54.600;9.842;2023-03-13T08:56:35;10.50;99.90
45849;DHT22;31567;54.600;9.842;2023-03-13T09:00:15;10.50;99.90
45849;DHT22;31567;54.600;9.842;2023-03-13T09:03:57;10.60;99.90
45849;DHT22;31567;54.600;9.842;2023-03-13T09:07:37;10.70;99.90
45849;DHT22;31567;54.600;9.842;2023-03-13T09:11:18;10.80;99.90
45849;DHT22;31567;54.600;9.842;2023-03-13T09:14:58;10.80;99.90
45849;DHT22;31567;54.600;9.842;2023-03-13T09:18:38;10.80;99.90
45849;DHT22;31567;54.600;9.842;2023-03-13T09:22:18;10.90;99.90
45849;DHT22;31567;54.600;9.842;2023-03-13T09:25:57;10.90;99.90
45849;DHT22;31567;54.600;9.842;2023-03-13T09:29:37;11.00;99.90
45849;DHT22;31567;54.600;9.842;2023-03-13T09:33:20;11.10;99.90
45849;DHT22;31567;54.600;9.842;2023-03-13T09:37:02;11.20;99.90
45849;DHT22;31567;54.600;9.842;2023-03-13T09:40:45;11.30;99.90
45849;DHT22;31567;54.600;9.842;2023-03-13T09:44:28;11.40;99.90
45849;DHT22;31567;54.600;9.842;2023-03-13T09:48:33;11.40;99.90
45849;DHT22;31567;54.600;9.842;2023-03-13T09:52:21;11.50;99.90
45849;DHT22;31567;54.600;9.842;2023-03-13T09:56:01;11.60;99.90
45849;DHT22;31567;54.600;9.842;2023-03-13T09:59:58;11.50;99.90
45849;DHT22;31567;54.600;9.842;2023-03-13T10:03:52;11.60;99.90
45849;DHT22;31567;54.600;9.842;2023-03-13T10:07:35;11.60;99.90
45849;DHT22;31567;54.600;9.842;2023-03-13T10:19:11;11.70;99.90
45849;DHT22;31567;54.600;9.842;2023-03-13T10:22:58;11.80;99.90
45849;DHT22;31567;54.600;9.842;2023-03-13T10:26:39;11.80;99.90
45849;DHT22;31567;54.600;9.842;2023-03-13T10:30:31;12.00;99.90
45849;DHT22;31567;54.600;9.842;2023-03-13T10:34:12;12.10;99.90
45849;DHT22;31567;54.600;9.842;2023-03-13T10:38:02;12.30;99.90
45849;DHT22;31567;54.600;9.842;2023-03-13T10:41:41;12.40;99.90
45849;DHT22;31567;54.600;9.842;2023-03-13T10:45:22;12.60;99.90
45849;DHT22;31567;54.600;9.842;2023-03-13T10:49:03;12.70;99.90
45849;DHT22;31567;54.600;9.842;2023-03-13T10:52:52;12.80;99.90
45849;DHT22;31567;54.600;9.842;2023-03-13T10:56:33;12.80;99.90
45849;DHT22;31567;54.600;9.842;2023-03-13T11:00:29;12.80;99.90
45849;DHT22;31567;54.600;9.842;2023-03-13T11:11:54;13.00;99.90
45849;DHT22;31567;54.600;9.842;2023-03-13T11:15:54;13.00;99.90
45849;DHT22;31567;54.600;9.842;2023-03-13T11:19:54;13.10;99.90
45849;DHT22;31567;54.600;9.842;2023-03-13T11:23:44;13.10;99.90
45849;DHT22;31567;54.600;9.842;2023-03-13T11:31:36;13.30;99.90
45849;DHT22;31567;54.600;9.842;2023-03-13T11:39:52;13.40;99.90
45849;DHT22;31567;54.600;9.842;2023-03-13T11:51:35;13.80;99.90
45849;DHT22;31567;54.600;9.842;2023-03-13T11:55:28;14.00;99.90
45849;DHT22;31567;54.600;9.842;2023-03-13T11:59:44;14.20;99.90
45849;DHT22;31567;54.600;9.842;2023-03-13T12:07:34;14.70;99.90
45849;DHT22;31567;54.600;9.842;2023-03-13T12:11:21;14.70;99.90
45849;DHT22;31567;54.600;9.842;2023-03-13T12:15:20;14.60;99.90
45849;DHT22;31567;54.600;9.842;2023-03-13T12:19:01;14.40;99.90
45849;DHT22;31567;54.600;9.842;2023-03-13T12:27:11;14.10;99.90
45849;DHT22;31567;54.600;9.842;2023-03-13T12:31:12;14.20;99.90
45849;DHT22;31567;54.600;9.842;2023-03-13T12:35:04;14.30;99.90
45849;DHT22;31567;54.600;9.842;2023-03-13T12:38:50;14.30;99.90
45849;DHT22;31567;54.600;9.842;2023-03-13T12:58:56;14.20;99.90
45849;DHT22;31567;54.600;9.842;2023-03-13T13:02:37;14.40;99.70
45849;DHT22;31567;54.600;9.842;2023-03-13T13:06:17;14.30;98.90
45849;DHT22;31567;54.600;9.842;2023-03-13T13:13:39;14.20;98.50
45849;DHT22;31567;54.600;9.842;2023-03-13T13:17:26;14.10;98.80
45849;DHT22;31567;54.600;9.842;2023-03-13T13:25:00;14.10;98.10
45849;DHT22;31567;54.600;9.842;2023-03-13T13:28:39;14.20;98.50
45849;DHT22;31567;54.600;9.842;2023-03-13T13:32:30;14.30;98.30
45849;DHT22;31567;54.600;9.842;2023-03-13T13:40:23;14.30;98.00
45849;DHT22;31567;54.600;9.842;2023-03-13T13:44:23;14.20;98.00
45849;DHT22;31567;54.600;9.842;2023-03-13T13:48:28;14.30;98.10
45849;DHT22;31567;54.600;9.842;2023-03-13T13:55:51;14.00;97.60
45849;DHT22;31567;54.600;9.842;2023-03-13T13:59:43;13.90;98.00
45849;DHT22;31567;54.600;9.842;2023-03-13T14:03:29;13.80;98.10
45849;DHT22;31567;54.600;9.842;2023-03-13T14:07:19;13.70;97.70
45849;DHT22;31567;54.600;9.842;2023-03-13T14:11:31;13.80;98.20
45849;DHT22;31567;54.600;9.842;2023-03-13T14:15:19;13.80;97.70
45849;DHT22;31567;54.600;9.842;2023-03-13T14:18:59;13.80;97.80
45849;DHT22;31567;54.600;9.842;2023-03-13T14:22:45;13.90;97.90
45849;DHT22;31567;54.600;9.842;2023-03-13T14:26:27;13.90;97.60
45849;DHT22;31567;54.600;9.842;2023-03-13T14:30:07;13.90;97.40
45849;DHT22;31567;54.600;9.842;2023-03-13T14:33:48;13.90;97.60
45849;DHT22;31567;54.600;9.842;2023-03-13T14:38:00;13.90;97.50
45849;DHT22;31567;54.600;9.842;2023-03-13T14:41:44;14.00;97.50
45849;DHT22;31567;54.600;9.842;2023-03-13T14:45:31;13.90;97.80
45849;DHT22;31567;54.600;9.842;2023-03-13T14:49:18;13.80;97.80
45849;DHT22;31567;54.600;9.842;2023-03-13T14:53:03;13.70;97.50
45849;DHT22;31567;54.600;9.842;2023-03-13T14:57:00;13.70;97.50
45849;DHT22;31567;54.600;9.842;2023-03-13T15:00:42;13.60;97.30
45849;DHT22;31567;54.600;9.842;2023-03-13T15:04:50;13.60;97.30
45849;DHT22;31567;54.600;9.842;2023-03-13T15:08:29;13.50;97.50
45849;DHT22;31567;54.600;9.842;2023-03-13T15:12:16;13.40;97.70
45849;DHT22;31567;54.600;9.842;2023-03-13T15:15:56;13.40;97.60
45849;DHT22;31567;54.600;9.842;2023-03-13T15:19:36;13.30;97.80
45849;DHT22;31567;54.600;9.842;2023-03-13T15:23:15;13.30;97.80
45849;DHT22;31567;54.600;9.842;2023-03-13T15:26:55;13.30;97.80
45849;DHT22;31567;54.600;9.842;2023-03-13T15:30:34;13.30;97.40
45849;DHT22;31567;54.600;9.842;2023-03-13T15:34:22;13.30;97.10
45849;DHT22;31567;54.600;9.842;2023-03-13T15:38:08;13.40;96.90
45849;DHT22;31567;54.600;9.842;2023-03-13T15:41:49;13.50;96.20
45849;DHT22;31567;54.600;9.842;2023-03-13T15:45:29;13.40;96.00
45849;DHT22;31567;54.600;9.842;2023-03-13T15:49:10;13.50;96.20
45849;DHT22;31567;54.600;9.842;2023-03-13T15:52:51;13.40;96.20
45849;DHT22;31567;54.600;9.842;2023-03-13T15:56:34;13.50;96.00
45849;DHT22;31567;54.600;9.842;2023-03-13T16:00:20;13.50;96.00
45849;DHT22;31567;54.600;9.842;2023-03-13T16:04:00;13.40;95.90
45849;DHT22;31567;54.600;9.842;2023-03-13T16:07:40;13.50;95.90
45849;DHT22;31567;54.600;9.842;2023-03-13T16:11:19;13.40;96.10
45849;DHT22;31567;54.600;9.842;2023-03-13T16:14:59;13.40;96.20
45849;DHT22;31567;54.600;9.842;2023-03-13T16:18:39;13.40;95.80
45849;DHT22;31567;54.600;9.842;2023-03-13T16:22:18;13.40;95.90
45849;DHT22;31567;54.600;9.842;2023-03-13T16:25:58;13.30;96.20
45849;DHT22;31567;54.600;9.842;2023-03-13T16:29:37;13.30;95.90
45849;DHT22;31567;54.600;9.842;2023-03-13T16:33:17;13.30;96.10
45849;DHT22;31567;54.600;9.842;2023-03-13T16:36:56;13.30;96.00
45849;DHT22;31567;54.600;9.842;2023-03-13T16:40:36;13.30;96.00
45849;DHT22;31567;54.600;9.842;2023-03-13T16:44:15;13.30;96.00
45849;DHT22;31567;54.600;9.842;2023-03-13T16:47:55;13.30;96.00
45849;DHT22;31567;54.600;9.842;2023-03-13T16:51:34;13.30;96.00
45849;DHT22;31567;54.600;9.842;2023-03-13T16:55:14;13.30;96.00
45849;DHT22;31567;54.600;9.842;2023-03-13T16:58:55;13.20;96.10
45849;DHT22;31567;54.600;9.842;2023-03-13T17:02:34;13.20;96.00
45849;DHT22;31567;54.600;9.842;2023-03-13T17:06:19;13.10;95.90
45849;DHT22;31567;54.600;9.842;2023-03-13T17:09:59;13.20;95.80
45849;DHT22;31567;54.600;9.842;2023-03-13T17:13:39;13.20;96.10
45849;DHT22;31567;54.600;9.842;2023-03-13T17:17:20;13.10;95.90
45849;DHT22;31567;54.600;9.842;2023-03-13T17:21:00;13.20;96.20
45849;DHT22;31567;54.600;9.842;2023-03-13T17:24:40;13.20;96.10
45849;DHT22;31567;54.600;9.842;2023-03-13T17:28:20;13.10;96.10
45849;DHT22;31567;54.600;9.842;2023-03-13T17:31:59;13.10;96.00
45849;DHT22;31567;54.600;9.842;2023-03-13T17:35:40;13.10;96.20
45849;DHT22;31567;54.600;9.842;2023-03-13T17:39:20;13.00;96.50
45849;DHT22;31567;54.600;9.842;2023-03-13T17:43:02;13.00;96.30
45849;DHT22;31567;54.600;9.842;2023-03-13T17:46:44;12.90;96.30
45849;DHT22;31567;54.600;9.842;2023-03-13T17:50:26;12.90;96.40
45849;DHT22;31567;54.600;9.842;2023-03-13T17:54:07;12.90;96.40
45849;DHT22;31567;54.600;9.842;2023-03-13T17:57:47;12.90;96.30
45849;DHT22;31567;54.600;9.842;2023-03-13T18:01:29;12.80;96.50
45849;DHT22;31567;54.600;9.842;2023-03-13T18:05:09;12.80;96.50
45849;DHT22;31567;54.600;9.842;2023-03-13T18:08:50;12.90;96.40
45849;DHT22;31567;54.600;9.842;2023-03-13T18:12:30;12.80;96.50
45849;DHT22;31567;54.600;9.842;2023-03-13T18:16:28;12.80;96.50
45849;DHT22;31567;54.600;9.842;2023-03-13T18:20:24;12.80;96.80
45849;DHT22;31567;54.600;9.842;2023-03-13T18:24:04;12.70;96.80
45849;DHT22;31567;54.600;9.842;2023-03-13T18:27:44;12.70;96.80
45849;DHT22;31567;54.600;9.842;2023-03-13T18:31:24;12.70;96.80
45849;DHT22;31567;54.600;9.842;2023-03-13T18:35:04;12.70;96.80
45849;DHT22;31567;54.600;9.842;2023-03-13T18:38:47;12.70;96.80
45849;DHT22;31567;54.600;9.842;2023-03-13T18:42:27;12.70;96.80
45849;DHT22;31567;54.600;9.842;2023-03-13T18:46:23;12.70;96.80
45849;DHT22;31567;54.600;9.842;2023-03-13T18:50:29;12.70;96.80
45849;DHT22;31567;54.600;9.842;2023-03-13T18:54:09;12.70;96.90
45849;DHT22;31567;54.600;9.842;2023-03-13T18:57:48;12.60;96.80
45849;DHT22;31567;54.600;9.842;2023-03-13T19:01:30;12.60;97.00
45849;DHT22;31567;54.600;9.842;2023-03-13T19:05:10;12.50;97.10
45849;DHT22;31567;54.600;9.842;2023-03-13T19:08:52;12.50;97.10
45849;DHT22;31567;54.600;9.842;2023-03-13T19:12:32;12.50;97.30
45849;DHT22;31567;54.600;9.842;2023-03-13T19:19:56;12.50;97.50
45849;DHT22;31567;54.600;9.842;2023-03-13T19:23:35;12.50;97.60
45849;DHT22;31567;54.600;9.842;2023-03-13T19:27:15;12.40;97.60
45849;DHT22;31567;54.600;9.842;2023-03-13T19:30:55;12.40;97.80
45849;DHT22;31567;54.600;9.842;2023-03-13T19:34:35;12.30;97.80
45849;DHT22;31567;54.600;9.842;2023-03-13T19:38:14;12.40;97.80
45849;DHT22;31567;54.600;9.842;2023-03-13T19:41:54;12.30;97.90
45849;DHT22;31567;54.600;9.842;2023-03-13T19:45:33;12.30;97.90
45849;DHT22;31567;54.600;9.842;2023-03-13T19:49:18;12.20;97.80
45849;DHT22;31567;54.600;9.842;2023-03-13T19:52:57;12.20;98.00
45849;DHT22;31567;54.600;9.842;2023-03-13T19:56:39;12.20;98.00
45849;DHT22;31567;54.600;9.842;2023-03-13T20:00:24;12.20;98.00
45849;DHT22;31567;54.600;9.842;2023-03-13T20:04:06;12.10;98.00
45849;DHT22;31567;54.600;9.842;2023-03-13T20:07:45;12.10;98.10
45849;DHT22;31567;54.600;9.842;2023-03-13T20:11:27;12.10;98.10
45849;DHT22;31567;54.600;9.842;2023-03-13T20:15:08;12.00;98.00
45849;DHT22;31567;54.600;9.842;2023-03-13T20:18:48;12.10;98.20
45849;DHT22;31567;54.600;9.842;2023-03-13T20:22:28;12.00;98.00
45849;DHT22;31567;54.600;9.842;2023-03-13T20:26:09;12.00;98.00
45849;DHT22;31567;54.600;9.842;2023-03-13T20:29:49;12.00;97.90
45849;DHT22;31567;54.600;9.842;2023-03-13T20:33:29;12.00;97.90
45849;DHT22;31567;54.600;9.842;2023-03-13T20:37:08;12.10;97.80
45849;DHT22;31567;54.600;9.842;2023-03-13T20:40:52;12.10;97.80
45849;DHT22;31567;54.600;9.842;2023-03-13T20:44:32;12.00;97.70
45849;DHT22;31567;54.600;9.842;2023-03-13T20:48:12;12.00;97.50
45849;DHT22;31567;54.600;9.842;2023-03-13T20:51:51;12.00;97.60
45849;DHT22;31567;54.600;9.842;2023-03-13T20:55:31;12.00;97.50
45849;DHT22;31567;54.600;9.842;2023-03-13T20:59:11;12.10;97.40
45849;DHT22;31567;54.600;9.842;2023-03-13T21:02:50;12.00;97.30
45849;DHT22;31567;54.600;9.842;2023-03-13T21:06:32;12.00;97.30
45849;DHT22;31567;54.600;9.842;2023-03-13T21:10:12;12.00;97.40
45849;DHT22;31567;54.600;9.842;2023-03-13T21:13:52;11.90;97.40
45849;DHT22;31567;54.600;9.842;2023-03-13T21:17:32;11.90;97.30
45849;DHT22;31567;54.600;9.842;2023-03-13T21:21:14;11.90;97.30
45849;DHT22;31567;54.600;9.842;2023-03-13T21:24:55;11.90;97.30
45849;DHT22;31567;54.600;9.842;2023-03-13T21:28:34;11.90;97.40
45849;DHT22;31567;54.600;9.842;2023-03-13T21:32:14;11.90;97.40
45849;DHT22;31567;54.600;9.842;2023-03-13T21:35:54;11.90;97.40
45849;DHT22;31567;54.600;9.842;2023-03-13T21:39:33;11.80;97.50
45849;DHT22;31567;54.600;9.842;2023-03-13T21:43:13;11.90;97.40
45849;DHT22;31567;54.600;9.842;2023-03-13T21:46:53;11.80;97.40
45849;DHT22;31567;54.600;9.842;2023-03-13T21:50:32;11.70;97.60
45849;DHT22;31567;54.600;9.842;2023-03-13T21:54:12;11.60;97.70
45849;DHT22;31567;54.600;9.842;2023-03-13T21:57:51;11.60;97.80
45849;DHT22;31567;54.600;9.842;2023-03-13T22:01:31;11.50;98.00
45849;DHT22;31567;54.600;9.842;2023-03-13T22:05:10;11.40;98.00
45849;DHT22;31567;54.600;9.842;2023-03-13T22:08:51;11.40;98.00
45849;DHT22;31567;54.600;9.842;2023-03-13T22:12:30;11.40;98.10
45849;DHT22;31567;54.600;9.842;2023-03-13T22:16:10;11.40;98.10
45849;DHT22;31567;54.600;9.842;2023-03-13T22:19:50;11.40;98.20
45849;DHT22;31567;54.600;9.842;2023-03-13T22:23:30;11.30;98.10
45849;DHT22;31567;54.600;9.842;2023-03-13T22:27:10;11.30;98.20
45849;DHT22;31567;54.600;9.842;2023-03-13T22:30:49;11.30;98.10
45849;DHT22;31567;54.600;9.842;2023-03-13T22:34:29;11.30;98.10
45849;DHT22;31567;54.600;9.842;2023-03-13T22:38:09;11.40;98.20
45849;DHT22;31567;54.600;9.842;2023-03-13T22:41:49;11.40;98.10
45849;DHT22;31567;54.600;9.842;2023-03-13T22:45:28;11.40;98.00
45849;DHT22;31567;54.600;9.842;2023-03-13T22:49:10;11.40;97.90
45849;DHT22;31567;54.600;9.842;2023-03-13T22:52:50;11.50;97.90
45849;DHT22;31567;54.600;9.842;2023-03-13T22:56:30;11.40;97.80
45849;DHT22;31567;54.600;9.842;2023-03-13T23:00:10;11.40;97.80
45849;DHT22;31567;54.600;9.842;2023-03-13T23:03:49;11.40;97.80
45849;DHT22;31567;54.600;9.842;2023-03-13T23:07:29;11.30;97.80
45849;DHT22;31567;54.600;9.842;2023-03-13T23:11:09;11.40;97.80
45849;DHT22;31567;54.600;9.842;2023-03-13T23:14:50;11.30;97.80
45849;DHT22;31567;54.600;9.842;2023-03-13T23:18:29;11.30;97.90
45849;DHT22;31567;54.600;9.842;2023-03-13T23:22:09;11.30;98.00
45849;DHT22;31567;54.600;9.842;2023-03-13T23:25:51;11.20;98.10
45849;DHT22;31567;54.600;9.842;2023-03-13T23:29:30;11.20;98.10
45849;DHT22;31567;54.600;9.842;2023-03-13T23:33:10;11.20;98.10
45849;DHT22;31567;54.600;9.842;2023-03-13T23:36:49;11.20;98.20
45849;DHT22;31567;54.600;9.842;2023-03-13T23:40:29;11.10;98.10
45849;DHT22;31567;54.600;9.842;2023-03-13T23:44:09;11.10;98.20
45849;DHT22;31567;54.600;9.842;2023-03-13T23:47:51;11.10;98.30
45849;DHT22;31567;54.600;9.842;2023-03-13T23:51:31;11.00;98.50
45849;DHT22;31567;54.600;9.842;2023-03-13T23:55:10;10.90;98.70
45849;DHT22;31567;54.600;9.842;2023-03-13T23:58:53;10.90;98.90
